createdAt,value
2023-04-11T00:00:16.530Z,9.85
2023-04-11T00:02:45.042Z,9.91
2023-04-11T00:05:12.533Z,10.10
2023-04-11T00:07:39.912Z,10.04
2023-04-11T00:10:08.201Z,9.97
2023-04-11T00:12:35.687Z,9.94
2023-04-11T00:15:03.748Z,10.01
2023-04-11T00:17:31.677Z,9.97
2023-04-11T00:20:01.810Z,9.89
2023-04-11T00:22:30.681Z,10.03
2023-04-11T00:24:58.127Z,10.03
2023-04-11T00:27:25.628Z,9.92
2023-04-11T00:29:54.782Z,10.03
2023-04-11T00:32:22.203Z,10.02
2023-04-11T00:34:49.619Z,9.89
2023-04-11T00:37:17.748Z,9.85
2023-04-11T00:39:45.644Z,9.98
2023-04-11T00:42:12.990Z,9.88
2023-04-11T00:44:40.441Z,9.97
2023-04-11T00:47:08.248Z,10.09
2023-04-11T00:49:36.631Z,9.97
2023-04-11T00:52:04.676Z,10.05
2023-04-11T00:54:32.265Z,10.03
2023-04-11T00:57:03.798Z,10.07
2023-04-11T00:59:32.180Z,9.92
2023-04-11T01:02:00.172Z,9.81
2023-04-11T01:04:29.377Z,9.79
2023-04-11T01:06:59.826Z,9.75
2023-04-11T01:09:28.270Z,9.89
2023-04-11T01:11:56.342Z,10.04
2023-04-11T01:14:25.411Z,9.91
2023-04-11T01:16:53.162Z,9.98
2023-04-11T01:19:21.119Z,10.11
2023-04-11T01:21:52.817Z,10.07
2023-04-11T01:24:20.491Z,9.92
2023-04-11T01:26:47.894Z,10.12
2023-04-11T01:29:15.319Z,10.15
2023-04-11T01:31:42.821Z,10.15
2023-04-11T01:34:12.830Z,10.06
2023-04-11T01:36:40.927Z,10.08
2023-04-11T01:39:08.519Z,10.16
2023-04-11T01:41:36.634Z,10.20
2023-04-11T01:44:05.003Z,10.34
2023-04-11T01:46:32.767Z,10.33
2023-04-11T01:49:00.995Z,10.32
2023-04-11T01:51:28.445Z,10.20
2023-04-11T01:53:55.875Z,10.27
2023-04-11T01:56:23.387Z,10.32
2023-04-11T01:58:50.926Z,10.30
2023-04-11T02:01:19.281Z,10.32
2023-04-11T02:03:47.155Z,10.42
2023-04-11T02:06:16.703Z,10.24
2023-04-11T02:08:44.563Z,10.25
2023-04-11T02:11:12.329Z,10.23
2023-04-11T02:13:39.727Z,10.21
2023-04-11T02:16:15.338Z,10.18
2023-04-11T02:18:43.890Z,10.41
2023-04-11T02:21:11.623Z,10.31
2023-04-11T02:23:39.076Z,10.20
2023-04-11T02:26:06.468Z,10.38
2023-04-11T02:28:34.109Z,10.27
2023-04-11T02:31:03.413Z,10.33
2023-04-11T02:33:30.903Z,10.28
2023-04-11T02:35:58.307Z,10.19
2023-04-11T02:38:25.839Z,10.15
2023-04-11T02:40:53.300Z,10.09
2023-04-11T02:43:20.782Z,10.04
2023-04-11T02:45:48.400Z,10.07
2023-04-11T02:48:16.279Z,10.03
2023-04-11T02:50:43.740Z,10.13
2023-04-11T02:53:11.321Z,10.01
2023-04-11T02:55:38.707Z,10.19
2023-04-11T02:58:06.178Z,10.27
2023-04-11T03:00:33.619Z,10.02
2023-04-11T03:03:02.582Z,10.04
2023-04-11T03:05:30.378Z,10.16
2023-04-11T03:07:58.914Z,10.11
2023-04-11T03:10:26.299Z,10.15
2023-04-11T03:12:53.715Z,10.10
2023-04-11T03:15:21.185Z,9.93
2023-04-11T03:17:48.797Z,10.04
2023-04-11T03:20:19.529Z,10.02
2023-04-11T03:22:47.247Z,10.00
2023-04-11T03:25:14.677Z,9.97
2023-04-11T03:27:42.228Z,9.94
2023-04-11T03:30:09.837Z,9.93
2023-04-11T03:32:37.271Z,9.84
2023-04-11T03:35:04.747Z,9.69
2023-04-11T03:37:32.136Z,9.72
2023-04-11T03:39:59.506Z,9.72
2023-04-11T03:42:26.953Z,9.65
2023-04-11T03:44:54.383Z,9.61
2023-04-11T03:47:21.807Z,9.50
2023-04-11T03:49:49.286Z,9.52
2023-04-11T03:52:17.548Z,9.49
2023-04-11T03:54:47.080Z,9.49
2023-04-11T03:57:15.505Z,9.42
2023-04-11T03:59:42.853Z,9.48
2023-04-11T04:02:10.363Z,9.37
2023-04-11T04:04:38.968Z,9.52
2023-04-11T04:07:06.771Z,9.30
2023-04-11T04:09:34.259Z,9.40
2023-04-11T04:12:01.754Z,9.22
2023-04-11T04:14:29.161Z,9.34
2023-04-11T04:16:56.588Z,9.22
2023-04-11T04:19:24.055Z,9.32
2023-04-11T04:21:51.472Z,9.30
2023-04-11T04:24:18.855Z,9.29
2023-04-11T04:26:49.970Z,9.17
2023-04-11T04:29:18.209Z,9.14
2023-04-11T04:31:52.979Z,9.32
2023-04-11T04:34:21.753Z,9.17
2023-04-11T04:36:49.395Z,9.28
2023-04-11T04:39:18.432Z,9.11
2023-04-11T04:41:48.754Z,9.14
2023-04-11T04:44:17.393Z,9.16
2023-04-11T04:46:44.892Z,8.99
2023-04-11T04:49:12.396Z,8.94
2023-04-11T04:51:40.577Z,9.07
2023-04-11T04:54:07.985Z,8.97
2023-04-11T04:56:35.611Z,8.96
2023-04-11T04:59:02.974Z,8.89
2023-04-11T05:01:33.056Z,8.79
2023-04-11T05:04:02.075Z,8.87
2023-04-11T05:06:31.511Z,8.92
2023-04-11T05:09:00.050Z,8.82
2023-04-11T05:11:28.294Z,8.81
2023-04-11T05:13:56.019Z,8.86
2023-04-11T05:16:23.677Z,8.91
2023-04-11T05:18:51.116Z,8.81
2023-04-11T05:21:18.612Z,8.76
2023-04-11T05:23:46.014Z,8.71
2023-04-11T05:26:13.427Z,8.89
2023-04-11T05:28:41.521Z,8.95
2023-04-11T05:31:09.921Z,8.90
2023-04-11T05:33:38.433Z,8.95
2023-04-11T05:36:06.839Z,9.03
2023-04-11T05:38:34.332Z,9.01
2023-04-11T05:41:01.957Z,9.03
2023-04-11T05:43:29.571Z,9.10
2023-04-11T05:45:58.017Z,9.13
2023-04-11T05:48:25.403Z,9.21
2023-04-11T05:50:53.196Z,9.21
2023-04-11T05:53:21.141Z,9.21
2023-04-11T05:55:48.623Z,9.21
2023-04-11T05:58:16.130Z,9.36
2023-04-11T06:00:43.635Z,9.47
2023-04-11T06:03:11.334Z,9.43
2023-04-11T06:05:39.287Z,9.47
2023-04-11T06:08:08.085Z,9.53
2023-04-11T06:10:35.784Z,9.46
2023-04-11T06:13:03.240Z,9.59
2023-04-11T06:15:30.746Z,9.67
2023-04-11T06:17:58.205Z,9.73
2023-04-11T06:20:25.828Z,9.92
2023-04-11T06:22:53.239Z,9.99
2023-04-11T06:25:21.805Z,10.10
2023-04-11T06:27:49.441Z,10.02
2023-04-11T06:30:16.881Z,10.31
2023-04-11T06:32:44.429Z,10.14
2023-04-11T06:35:11.913Z,10.32
2023-04-11T06:37:39.409Z,10.26
2023-04-11T06:40:07.210Z,10.37
2023-04-11T06:42:34.750Z,10.36
2023-04-11T06:45:02.227Z,10.41
2023-04-11T06:47:29.699Z,10.44
2023-04-11T06:49:57.313Z,10.55
2023-04-11T06:52:26.450Z,10.67
2023-04-11T06:54:54.988Z,10.60
2023-04-11T06:57:22.969Z,10.74
2023-04-11T06:59:50.552Z,10.62
2023-04-11T07:02:18.228Z,10.65
2023-04-11T07:04:45.770Z,10.70
2023-04-11T07:07:13.186Z,10.58
2023-04-11T07:09:40.947Z,10.48
2023-04-11T07:12:08.360Z,10.86
2023-04-11T07:14:35.937Z,10.74
2023-04-11T07:17:03.367Z,11.12
2023-04-11T07:19:30.824Z,11.05
2023-04-11T07:21:58.451Z,11.12
2023-04-11T07:24:26.044Z,11.05
2023-04-11T07:26:54.378Z,11.16
2023-04-11T07:29:21.837Z,11.18
2023-04-11T07:31:49.756Z,11.19
2023-04-11T07:34:17.226Z,11.40
2023-04-11T07:36:44.714Z,11.33
2023-04-11T07:39:14.044Z,11.62
2023-04-11T07:41:41.548Z,11.55
2023-04-11T07:44:09.656Z,11.46
2023-04-11T07:46:37.183Z,11.31
2023-04-11T07:49:04.678Z,11.11
2023-04-11T07:51:33.129Z,10.95
2023-04-11T07:54:00.584Z,11.22
2023-04-11T07:56:28.154Z,11.57
2023-04-11T07:58:57.091Z,11.58
2023-04-11T08:01:25.530Z,11.57
2023-04-11T08:03:54.854Z,11.70
2023-04-11T08:06:22.710Z,12.27
2023-04-11T08:08:50.408Z,12.30
2023-04-11T08:11:17.920Z,12.06
2023-04-11T08:13:45.409Z,11.77
2023-04-11T08:16:14.904Z,11.94
2023-04-11T08:18:43.028Z,11.65
2023-04-11T08:21:11.983Z,11.77
2023-04-11T08:23:42.425Z,11.88
2023-04-11T08:26:11.943Z,11.78
2023-04-11T08:28:41.873Z,11.91
2023-04-11T08:31:10.777Z,12.37
2023-04-11T08:33:40.163Z,12.34
2023-04-11T08:36:10.129Z,12.06
2023-04-11T08:38:38.645Z,11.73
2023-04-11T08:41:06.325Z,11.42
2023-04-11T08:43:40.929Z,11.77
2023-04-11T08:46:08.912Z,12.30
2023-04-11T08:48:36.507Z,12.68
2023-04-11T08:51:03.992Z,13.06
2023-04-11T08:53:32.067Z,13.32
2023-04-11T08:55:59.941Z,13.55
2023-04-11T08:58:27.479Z,13.57
2023-04-11T09:00:55.021Z,13.79
2023-04-11T09:03:22.580Z,13.67
2023-04-11T09:05:50.124Z,13.91
2023-04-11T09:08:18.119Z,13.98
2023-04-11T09:10:46.331Z,14.56
2023-04-11T09:13:27.003Z,14.56
2023-04-11T09:16:06.705Z,14.70
2023-04-11T09:18:34.986Z,14.72
2023-04-11T09:21:05.167Z,14.44
2023-04-11T09:23:32.639Z,14.42
2023-04-11T09:26:00.057Z,14.93
2023-04-11T09:28:27.588Z,14.23
2023-04-11T09:30:59.042Z,14.63
2023-04-11T09:33:28.329Z,14.58
2023-04-11T09:35:56.980Z,14.19
2023-04-11T09:38:35.576Z,14.07
2023-04-11T09:41:03.564Z,14.59
2023-04-11T09:43:51.477Z,14.49
2023-04-11T09:46:20.907Z,14.71
2023-04-11T09:48:49.518Z,13.95
2023-04-11T09:53:40.406Z,14.32
2023-04-11T09:54:06.059Z,14.55
2023-04-11T09:56:35.217Z,14.54
2023-04-11T09:59:03.646Z,14.40
2023-04-11T10:01:31.039Z,13.96
2023-04-11T10:03:58.811Z,14.70
2023-04-11T10:06:34.788Z,14.97
2023-04-11T10:09:10.938Z,15.64
2023-04-11T10:11:41.256Z,15.25
2023-04-11T10:14:08.665Z,15.35
2023-04-11T10:16:36.169Z,15.48
2023-04-11T10:19:04.407Z,15.39
2023-04-11T10:21:32.673Z,14.77
2023-04-11T10:24:17.465Z,15.05
2023-04-11T10:26:57.596Z,14.64
2023-04-11T10:29:33.174Z,14.48
2023-04-11T10:32:13.286Z,14.71
2023-04-11T10:34:41.986Z,15.02
2023-04-11T10:37:10.803Z,15.14
2023-04-11T10:40:10.014Z,16.04
2023-04-11T10:42:42.099Z,15.83
2023-04-11T10:45:39.880Z,16.27
2023-04-11T10:48:10.394Z,15.30
2023-04-11T10:50:40.845Z,15.03
2023-04-11T10:53:09.867Z,15.69
2023-04-11T10:55:50.180Z,15.72
2023-04-11T10:58:19.812Z,16.50
2023-04-11T11:00:50.687Z,16.63
2023-04-11T11:03:19.400Z,16.02
2023-04-11T11:05:47.177Z,16.91
2023-04-11T11:08:14.821Z,16.55
2023-04-11T11:10:46.419Z,16.19
2023-04-11T11:13:16.178Z,15.94
2023-04-11T11:15:50.449Z,15.33
2023-04-11T11:18:19.097Z,15.33
2023-04-11T11:20:46.541Z,15.49
2023-04-11T11:23:14.032Z,15.23
2023-04-11T11:25:41.936Z,15.82
2023-04-11T11:28:09.968Z,15.47
2023-04-11T11:30:38.046Z,16.20
2023-04-11T11:33:15.852Z,16.74
2023-04-11T11:35:44.498Z,16.71
2023-04-11T11:38:12.049Z,16.59
2023-04-11T11:40:39.584Z,16.77
2023-04-11T11:43:08.229Z,16.99
2023-04-11T11:45:35.810Z,17.04
2023-04-11T11:48:03.333Z,17.45
2023-04-11T11:50:32.009Z,18.05
2023-04-11T11:53:12.796Z,17.87
2023-04-11T11:55:40.381Z,17.46
2023-04-11T11:58:07.956Z,17.01
2023-04-11T12:00:40.283Z,16.84
2023-04-11T12:03:09.957Z,16.30
2023-04-11T12:05:37.923Z,17.04
2023-04-11T12:08:07.781Z,16.86
2023-04-11T12:10:44.476Z,17.45
2023-04-11T12:13:32.138Z,17.39
2023-04-11T12:16:02.414Z,17.44
2023-04-11T12:18:29.825Z,18.07
2023-04-11T12:20:58.519Z,18.63
2023-04-11T12:23:26.415Z,18.67
2023-04-11T12:25:53.925Z,18.60
2023-04-11T12:28:21.556Z,18.57
2023-04-11T12:30:49.010Z,18.24
2023-04-11T12:33:17.214Z,18.09
2023-04-11T12:35:44.656Z,18.13
2023-04-11T12:38:14.877Z,18.96
2023-04-11T12:40:45.061Z,19.10
2023-04-11T12:43:12.537Z,18.15
2023-04-11T12:45:39.953Z,17.98
2023-04-11T12:48:07.518Z,17.80
2023-04-11T12:50:35.213Z,18.50
2023-04-11T12:53:02.725Z,18.29
2023-04-11T12:55:30.311Z,18.51
2023-04-11T12:57:57.738Z,18.22
2023-04-11T13:00:25.363Z,18.04
2023-04-11T13:02:53.504Z,17.89
2023-04-11T13:05:22.530Z,17.58
2023-04-11T13:07:50.176Z,18.39
2023-04-11T13:10:17.776Z,18.68
2023-04-11T13:12:46.035Z,18.40
2023-04-11T13:15:14.256Z,18.71
2023-04-11T13:17:41.871Z,18.73
2023-04-11T13:20:10.864Z,17.80
2023-04-11T13:22:38.836Z,17.34
2023-04-11T13:25:06.840Z,17.46
2023-04-11T13:27:34.320Z,18.00
2023-04-11T13:30:02.034Z,18.15
2023-04-11T13:32:29.516Z,17.55
2023-04-11T13:34:56.966Z,17.89
2023-04-11T13:37:24.404Z,17.79
2023-04-11T13:39:52.114Z,17.80
2023-04-11T13:42:21.823Z,17.80
2023-04-11T13:44:49.320Z,17.68
2023-04-11T13:47:16.806Z,17.63
2023-04-11T13:49:44.482Z,17.99
2023-04-11T13:52:11.891Z,17.65
2023-04-11T13:54:39.314Z,18.08
2023-04-11T13:57:09.529Z,17.49
2023-04-11T13:59:37.289Z,17.24
2023-04-11T14:02:04.880Z,16.67
2023-04-11T14:04:32.438Z,16.46
2023-04-11T14:07:00.071Z,16.51
2023-04-11T14:09:27.509Z,16.48
2023-04-11T14:11:55.148Z,15.75
2023-04-11T14:14:22.826Z,15.53
2023-04-11T14:16:50.390Z,15.48
2023-04-11T14:19:17.834Z,15.19
2023-04-11T14:21:45.667Z,15.05
2023-04-11T14:24:13.142Z,15.29
2023-04-11T14:26:40.632Z,15.27
2023-04-11T14:29:08.295Z,15.39
2023-04-11T14:31:36.389Z,15.31
2023-04-11T14:34:03.977Z,15.26
2023-04-11T14:36:32.032Z,15.15
2023-04-11T14:38:59.568Z,15.52
2023-04-11T14:41:26.973Z,15.36
2023-04-11T14:43:54.652Z,15.02
2023-04-11T14:46:22.345Z,15.02
2023-04-11T14:48:49.790Z,15.15
2023-04-11T14:51:17.206Z,15.00
2023-04-11T14:53:44.687Z,15.42
2023-04-11T14:56:12.187Z,15.30
2023-04-11T14:58:39.848Z,15.34
2023-04-11T15:01:07.951Z,15.31
2023-04-11T15:03:35.549Z,15.20
2023-04-11T15:06:03.606Z,15.05
2023-04-11T15:08:31.313Z,14.98
2023-04-11T15:10:58.778Z,14.70
2023-04-11T15:13:27.020Z,14.69
2023-04-11T15:15:54.478Z,15.09
2023-04-11T15:18:23.302Z,14.82
2023-04-11T15:20:50.873Z,15.03
2023-04-11T15:23:19.113Z,14.45
2023-04-11T15:25:56.753Z,14.90
2023-04-11T15:28:24.989Z,14.68
2023-04-11T15:30:53.235Z,14.46
2023-04-11T15:33:22.015Z,14.50
2023-04-11T15:35:49.473Z,14.93
2023-04-11T15:38:18.401Z,14.92
2023-04-11T15:40:46.412Z,14.81
2023-04-11T15:43:13.864Z,14.89
2023-04-11T15:45:44.060Z,14.56
2023-04-11T15:48:12.849Z,14.35
2023-04-11T15:50:40.868Z,14.61
2023-04-11T15:53:08.571Z,14.74
2023-04-11T15:55:39.172Z,14.64
2023-04-11T15:58:06.661Z,14.64
2023-04-11T16:00:36.328Z,14.70
2023-04-11T16:03:04.873Z,14.71
2023-04-11T16:05:36.734Z,14.47
2023-04-11T16:08:04.693Z,14.52
2023-04-11T16:10:32.801Z,14.54
2023-04-11T16:13:00.441Z,14.51
2023-04-11T16:15:27.784Z,14.43
2023-04-11T16:17:55.408Z,14.63
2023-04-11T16:20:22.838Z,14.48
2023-04-11T16:22:50.303Z,14.39
2023-04-11T16:25:20.917Z,14.16
2023-04-11T16:27:49.046Z,13.99
2023-04-11T16:30:16.900Z,13.93
2023-04-11T16:32:44.757Z,14.13
2023-04-11T16:35:12.325Z,13.91
2023-04-11T16:37:39.837Z,14.11
2023-04-11T16:40:11.257Z,14.04
2023-04-11T16:42:39.283Z,14.21
2023-04-11T16:45:07.659Z,14.18
2023-04-11T16:47:35.134Z,14.03
2023-04-11T16:50:02.718Z,14.03
2023-04-11T16:52:30.431Z,13.91
2023-04-11T16:54:57.896Z,14.10
2023-04-11T16:57:25.709Z,13.96
2023-04-11T16:59:53.153Z,14.09
2023-04-11T17:02:20.683Z,13.76
2023-04-11T17:04:48.232Z,13.97
2023-04-11T17:07:16.204Z,13.85
2023-04-11T17:09:43.855Z,13.78
2023-04-11T17:12:11.398Z,13.74
2023-04-11T17:14:38.854Z,13.75
2023-04-11T17:17:06.295Z,13.51
2023-04-11T17:19:33.838Z,13.53
2023-04-11T17:22:01.705Z,13.48
2023-04-11T17:24:29.078Z,13.49
2023-04-11T17:26:57.004Z,13.39
2023-04-11T17:29:24.700Z,13.74
2023-04-11T17:31:52.357Z,13.66
2023-04-11T17:34:19.737Z,13.81
2023-04-11T17:36:47.925Z,13.84
2023-04-11T17:39:17.880Z,13.81
2023-04-11T17:41:45.977Z,13.82
2023-04-11T17:44:13.798Z,13.68
2023-04-11T17:46:41.480Z,13.51
2023-04-11T17:49:09.031Z,13.42
2023-04-11T17:51:38.897Z,13.55
2023-04-11T17:54:10.391Z,13.33
2023-04-11T17:56:37.843Z,13.44
2023-04-11T17:59:05.325Z,13.51
2023-04-11T18:01:32.995Z,13.33
2023-04-11T18:04:01.799Z,13.23
2023-04-11T18:06:29.846Z,13.28
2023-04-11T18:08:57.349Z,13.23
2023-04-11T18:11:24.880Z,13.29
2023-04-11T18:13:52.368Z,13.23
2023-04-11T18:16:19.857Z,13.35
2023-04-11T18:18:48.122Z,13.29
2023-04-11T18:21:16.522Z,13.17
2023-04-11T18:23:44.070Z,13.22
2023-04-11T18:26:11.484Z,13.13
2023-04-11T18:28:38.887Z,13.15
2023-04-11T18:31:06.833Z,13.14
2023-04-11T18:33:37.490Z,13.20
2023-04-11T18:36:07.069Z,13.09
2023-04-11T18:38:34.540Z,13.07
2023-04-11T18:41:06.776Z,12.97
2023-04-11T18:43:35.078Z,13.00
2023-04-11T18:46:02.706Z,12.99
2023-04-11T18:48:31.639Z,12.93
2023-04-11T18:50:59.845Z,12.95
2023-04-11T18:53:29.894Z,12.90
2023-04-11T18:55:57.881Z,12.86
2023-04-11T18:58:27.007Z,12.88
2023-04-11T19:00:55.469Z,12.85
2023-04-11T19:03:24.192Z,12.85
2023-04-11T19:05:52.756Z,12.81
2023-04-11T19:08:20.409Z,12.76
2023-04-11T19:10:47.800Z,12.77
2023-04-11T19:13:15.471Z,12.73
2023-04-11T19:15:42.871Z,12.76
2023-04-11T19:18:11.239Z,12.81
2023-04-11T19:20:39.136Z,12.80
2023-04-11T19:23:06.700Z,12.72
2023-04-11T19:25:34.731Z,12.62
2023-04-11T19:28:02.131Z,12.50
2023-04-11T19:30:29.637Z,12.52
2023-04-11T19:32:58.711Z,12.65
2023-04-11T19:35:26.194Z,12.67
2023-04-11T19:37:53.923Z,12.69
2023-04-11T19:40:23.246Z,12.62
2023-04-11T19:42:51.219Z,12.70
2023-04-11T19:45:18.855Z,12.84
2023-04-11T19:47:46.520Z,12.62
2023-04-11T19:50:13.982Z,12.52
2023-04-11T19:52:41.818Z,12.60
2023-04-11T19:55:10.401Z,12.64
2023-04-11T19:57:38.761Z,12.71
2023-04-11T20:00:12.142Z,12.67
2023-04-11T20:02:41.268Z,12.47
2023-04-11T20:05:09.119Z,12.55
2023-04-11T20:07:36.535Z,12.47
2023-04-11T20:10:04.335Z,12.55
2023-04-11T20:12:31.731Z,12.37
2023-04-11T20:14:59.122Z,12.52
2023-04-11T20:17:26.621Z,12.36
2023-04-11T20:19:55.499Z,12.45
2023-04-11T20:22:23.270Z,12.52
2023-04-11T20:24:50.876Z,12.46
2023-04-11T20:27:18.640Z,12.46
2023-04-11T20:29:46.079Z,12.34
2023-04-11T20:32:13.498Z,12.42
2023-04-11T20:34:40.986Z,12.37
2023-04-11T20:37:09.011Z,12.20
2023-04-11T20:39:36.453Z,12.16
2023-04-11T20:42:04.220Z,12.44
2023-04-11T20:44:34.110Z,12.36
2023-04-11T20:47:01.512Z,12.37
2023-04-11T20:49:31.800Z,12.33
2023-04-11T20:52:00.043Z,12.19
2023-04-11T20:54:27.653Z,12.24
2023-04-11T20:56:55.782Z,12.17
2023-04-11T20:59:23.225Z,12.21
2023-04-11T21:01:50.763Z,12.19
2023-04-11T21:04:18.696Z,12.06
2023-04-11T21:06:46.462Z,12.05
2023-04-11T21:09:14.026Z,12.00
2023-04-11T21:11:41.411Z,12.03
2023-04-11T21:14:08.809Z,12.11
2023-04-11T21:16:36.220Z,11.98
2023-04-11T21:19:03.599Z,12.14
2023-04-11T21:21:31.082Z,12.05
2023-04-11T21:23:58.885Z,12.09
2023-04-11T21:26:27.129Z,12.09
2023-04-11T21:28:54.498Z,11.97
2023-04-11T21:31:21.897Z,12.05
2023-04-11T21:33:49.414Z,12.05
2023-04-11T21:36:16.909Z,12.14
2023-04-11T21:38:44.402Z,12.05
2023-04-11T21:41:11.765Z,12.11
2023-04-11T21:43:39.211Z,12.14
2023-04-11T21:46:06.813Z,11.94
2023-04-11T21:48:34.185Z,12.08
2023-04-11T21:51:03.347Z,11.98
2023-04-11T21:53:30.827Z,11.99
2023-04-11T21:55:58.294Z,11.92
2023-04-11T21:58:29.647Z,11.91
2023-04-11T22:00:57.622Z,11.92
2023-04-11T22:03:26.556Z,11.95
2023-04-11T22:05:54.308Z,11.74
2023-04-11T22:08:22.805Z,11.79
2023-04-11T22:10:50.916Z,11.59
2023-04-11T22:13:19.354Z,11.74
2023-04-11T22:15:48.759Z,11.32
2023-04-11T22:18:16.219Z,11.60
2023-04-11T22:20:44.527Z,11.60
2023-04-11T22:23:13.074Z,11.32
2023-04-11T22:25:44.250Z,11.18
2023-04-11T22:28:15.587Z,11.37
2023-04-11T22:30:44.095Z,11.28
2023-04-11T22:33:13.770Z,11.27
2023-04-11T22:35:43.916Z,11.20
2023-04-11T22:38:11.631Z,11.05
2023-04-11T22:40:40.351Z,10.95
2023-04-11T22:43:07.818Z,10.85
2023-04-11T22:45:35.939Z,10.83
2023-04-11T22:48:04.632Z,10.85
2023-04-11T22:50:37.258Z,10.78
2023-04-11T22:53:04.766Z,10.94
2023-04-11T22:55:34.427Z,10.89
2023-04-11T22:58:05.006Z,10.93
2023-04-11T23:00:38.131Z,10.72
2023-04-11T23:03:07.332Z,10.68
2023-04-11T23:05:35.331Z,10.67
2023-04-11T23:08:02.730Z,10.77
2023-04-11T23:10:30.144Z,10.57
2023-04-11T23:12:57.617Z,10.66
2023-04-11T23:15:25.033Z,10.50
2023-04-11T23:17:52.469Z,10.51
2023-04-11T23:20:22.165Z,10.59
2023-04-11T23:22:49.607Z,10.73
2023-04-11T23:25:16.989Z,10.68
2023-04-11T23:27:45.084Z,10.38
2023-04-11T23:30:12.987Z,10.37
2023-04-11T23:32:41.427Z,10.41
2023-04-11T23:35:09.119Z,10.49
2023-04-11T23:37:36.494Z,10.45
2023-04-11T23:40:10.490Z,10.33
2023-04-11T23:42:38.572Z,10.33
2023-04-11T23:45:07.184Z,10.05
2023-04-11T23:47:35.230Z,10.22
2023-04-11T23:50:03.663Z,10.16
2023-04-11T23:52:31.432Z,10.20
2023-04-11T23:54:58.942Z,10.15
2023-04-11T23:57:26.398Z,10.13
2023-04-11T23:59:53.841Z,10.17
